Time;durP1;ratioP1;P1;durP2;ratioP2;P2;SDS_P1;SDS_P2;PMS_P1;PMS_P2;Temp;Humidity;BMP_temperature;BMP_pressure;BME280_temperature;BME280_humidity;BME280_pressure;Samples;Min_cycle;Max_cycle;Signal;HPM_P1;HPM_P2
2022/11/04 00:03:10;;;;;;;4.93;4.28;;;12.30;91.00;;;;;;4889719;29;20295;-90
2022/11/04 00:05:40;;;;;;;6.78;4.70;;;12.30;90.80;;;;;;4890324;29;20207;-90
2022/11/04 00:13:51;;;;;;;4.90;3.70;;;12.30;90.70;;;;;;4883862;29;20366;-90
2022/11/04 00:19:06;;;;;;;6.22;3.58;;;12.30;90.40;;;;;;4891661;29;20226;-90
2022/11/04 00:29:59;;;;;;;5.35;3.70;;;12.20;90.80;;;;;;5001022;28;20254;-90
2022/11/04 00:35:13;;;;;;;6.35;4.03;;;12.00;90.70;;;;;;5006503;28;20198;-90
2022/11/04 00:37:44;;;;;;;4.20;3.78;;;12.10;90.80;;;;;;5008157;28;20228;-89
2022/11/04 00:40:14;;;;;;;4.18;3.28;;;12.10;91.10;;;;;;5001891;28;20745;-90
2022/11/04 00:42:48;;;;;;;3.95;3.50;;;12.00;90.70;;;;;;5005563;28;20786;-90
2022/11/04 00:45:15;;;;;;;4.13;3.55;;;12.00;90.80;;;;;;5006102;28;20203;-90
2022/11/04 00:47:43;;;;;;;3.85;3.45;;;11.90;90.70;;;;;;5006775;28;20291;-89
2022/11/04 00:50:10;;;;;;;3.22;2.92;;;11.80;91.40;;;;;;5012726;28;20203;-91
2022/11/04 00:52:48;;;;;;;4.72;3.08;;;11.80;91.30;;;;;;5012244;28;20278;-90
2022/11/04 00:58:11;;;;;;;2.83;2.40;;;11.80;90.70;;;;;;4951625;29;20589;-90
2022/11/04 01:00:50;;;;;;;5.32;2.70;;;11.80;90.70;;;;;;4954599;28;20293;-90
2022/11/04 01:06:52;;;;;;;2.53;2.20;;;11.60;91.80;;;;;;4954851;29;20184;-90
2022/11/04 01:10:18;;;;;;;2.47;2.28;;;11.40;93.10;;;;;;4914251;29;20216;-90
2022/11/04 01:12:51;;;;;;;2.88;2.40;;;11.10;94.30;;;;;;4909494;29;20300;-90
2022/11/04 01:19:01;;;;;;;3.30;2.17;;;10.90;95.90;;;;;;4911488;29;20244;-90
2022/11/04 01:21:28;;;;;;;3.08;2.22;;;10.80;96.10;;;;;;4912257;29;20234;-90
2022/11/04 01:24:14;;;;;;;2.30;1.92;;;10.70;96.30;;;;;;4916240;29;20297;-90
2022/11/04 01:27:00;;;;;;;2.65;1.95;;;10.60;97.20;;;;;;4916699;29;20654;-90
2022/11/04 01:29:31;;;;;;;1.90;1.80;;;10.50;97.60;;;;;;4948549;29;20296;-90
2022/11/04 01:31:58;;;;;;;2.30;2.10;;;10.40;97.80;;;;;;4952319;29;20288;-88
2022/11/04 01:34:31;;;;;;;1.83;1.63;;;10.40;98.10;;;;;;4952888;28;20272;-90
2022/11/04 01:36:58;;;;;;;3.58;2.00;;;10.30;98.40;;;;;;5011437;28;20290;-90
2022/11/04 01:42:10;;;;;;;1.90;1.80;;;10.30;98.40;;;;;;5010217;28;20577;-90
2022/11/04 01:44:52;;;;;;;2.42;1.50;;;10.20;98.60;;;;;;5006433;28;20206;-90
2022/11/04 01:47:26;;;;;;;3.92;1.70;;;10.10;98.70;;;;;;5011587;28;20668;-89
2022/11/04 01:50:14;;;;;;;1.70;1.60;;;10.10;98.90;;;;;;5013018;28;20203;-90
2022/11/04 01:52:48;;;;;;;1.95;1.63;;;10.00;99.30;;;;;;5010917;28;20294;-90
2022/11/04 01:55:21;;;;;;;1.52;1.42;;;10.00;99.50;;;;;;5007216;28;20200;-90
2022/11/04 01:57:50;;;;;;;1.55;1.45;;;10.00;99.30;;;;;;4997374;28;20274;-90
2022/11/04 02:00:18;;;;;;;1.63;1.48;;;10.00;99.10;;;;;;5012516;28;20207;-90
2022/11/04 02:02:54;;;;;;;1.83;1.40;;;10.00;99.20;;;;;;5011988;28;20223;-90
2022/11/04 02:05:32;;;;;;;1.92;1.52;;;10.00;98.50;;;;;;5009556;28;20742;-90
2022/11/04 02:08:02;;;;;;;1.33;1.20;;;10.00;98.70;;;;;;5014079;28;20333;-90
2022/11/04 02:10:33;;;;;;;2.20;1.30;;;10.00;98.30;;;;;;5012097;28;20199;-90
2022/11/04 02:13:02;;;;;;;1.98;1.00;;;10.00;98.30;;;;;;5012274;28;20235;-90
2022/11/04 02:15:38;;;;;;;1.52;1.20;;;9.90;99.10;;;;;;5011081;28;20218;-90
2022/11/04 02:18:33;;;;;;;1.23;1.13;;;9.90;99.00;;;;;;5013431;28;20229;-90
2022/11/04 02:21:19;;;;;;;1.48;1.30;;;9.80;99.10;;;;;;5011911;28;20633;-90
2022/11/04 02:24:21;;;;;;;1.30;1.20;;;9.80;98.70;;;;;;5008670;28;20227;-90
2022/11/04 02:27:23;;;;;;;1.02;0.93;;;9.80;99.10;;;;;;4931315;29;20293;-90
2022/11/04 02:46:35;;;;;;;1.25;1.10;;;9.90;98.20;;;;;;4888011;29;20207;-90
2022/11/04 02:52:10;;;;;;;1.15;1.05;;;9.80;98.10;;;;;;4893957;29;20652;-90
2022/11/04 02:54:55;;;;;;;1.58;0.90;;;9.90;97.50;;;;;;4911850;29;20671;-90
2022/11/04 02:57:56;;;;;;;1.85;1.10;;;10.00;97.00;;;;;;4922266;29;20213;-90
2022/11/04 03:03:53;;;;;;;0.73;0.73;;;9.90;97.40;;;;;;4963265;28;20677;-90
2022/11/04 03:07:36;;;;;;;1.52;1.10;;;9.90;97.40;;;;;;4971131;28;20595;-89
2022/11/04 03:10:09;;;;;;;0.95;0.95;;;9.90;96.50;;;;;;4968159;28;20295;-90
2022/11/04 03:12:40;;;;;;;1.52;1.30;;;9.90;96.10;;;;;;4968148;28;20208;-90
2022/11/04 03:15:29;;;;;;;2.40;1.20;;;9.80;96.10;;;;;;4967810;28;20303;-90
2022/11/04 03:18:29;;;;;;;0.80;0.80;;;9.80;96.60;;;;;;4970682;28;20268;-90
2022/11/04 03:21:15;;;;;;;0.68;0.68;;;9.90;96.10;;;;;;4971963;28;20307;-90
2022/11/04 03:24:06;;;;;;;1.00;0.90;;;9.90;95.90;;;;;;4971666;28;20207;-90
2022/11/04 03:30:20;;;;;;;1.90;0.80;;;9.90;95.90;;;;;;4972039;28;20347;-90
2022/11/04 03:32:56;;;;;;;1.10;0.80;;;9.80;96.10;;;;;;4971883;28;20211;-90
2022/11/04 03:35:23;;;;;;;2.42;0.90;;;9.80;95.80;;;;;;4966117;28;20207;-90
2022/11/04 03:38:07;;;;;;;0.90;0.82;;;9.80;96.10;;;;;;4971884;28;20232;-90
2022/11/04 03:41:01;;;;;;;0.75;0.75;;;9.70;96.00;;;;;;4954287;28;20296;-90
2022/11/04 03:44:12;;;;;;;1.35;0.80;;;9.80;96.10;;;;;;4968542;28;20204;-90
2022/11/04 03:46:43;;;;;;;0.98;0.90;;;9.70;95.70;;;;;;4964268;28;20652;-90
2022/11/04 03:50:05;;;;;;;1.25;1.00;;;9.80;95.50;;;;;;4952825;29;20228;-90
2022/11/04 03:53:12;;;;;;;0.90;0.90;;;9.80;95.30;;;;;;4952896;29;20752;-90
2022/11/04 03:55:51;;;;;;;1.20;1.10;;;9.80;94.60;;;;;;4950673;29;20293;-90
2022/11/04 04:01:48;;;;;;;1.20;0.93;;;9.90;94.60;;;;;;4899741;29;20215;-90
2022/11/04 04:04:38;;;;;;;1.00;0.90;;;9.80;94.30;;;;;;4895441;29;20206;-90
2022/11/04 04:07:12;;;;;;;1.10;1.00;;;9.80;94.30;;;;;;4898959;29;20294;-90
2022/11/04 04:09:47;;;;;;;0.70;0.70;;;9.80;94.60;;;;;;4898506;29;20214;-90
2022/11/04 04:28:57;;;;;;;1.13;0.88;;;9.60;95.20;;;;;;5033188;28;20189;-90
2022/11/04 04:45:07;;;;;;;0.70;0.70;;;9.60;94.70;;;;;;5035493;28;20197;-90
2022/11/04 04:47:41;;;;;;;0.82;0.82;;;9.70;93.70;;;;;;5035759;28;20293;-89
2022/11/04 04:53:49;;;;;;;1.65;0.77;;;9.80;93.40;;;;;;5020345;28;20233;-90
2022/11/04 04:56:31;;;;;;;2.38;0.93;;;9.80;93.20;;;;;;5034682;28;20293;-90
2022/11/04 04:59:20;;;;;;;0.85;0.70;;;9.70;93.70;;;;;;4992421;28;20219;-90
2022/11/04 05:01:49;;;;;;;0.90;0.90;;;9.70;93.10;;;;;;4992236;28;20286;-89
2022/11/04 05:04:16;;;;;;;1.27;0.82;;;9.60;93.50;;;;;;4993786;28;20287;-90
2022/11/04 05:07:12;;;;;;;0.70;0.70;;;9.70;94.40;;;;;;4993855;28;20298;-90
2022/11/04 05:10:30;;;;;;;2.40;0.80;;;9.70;93.80;;;;;;4987838;28;20284;-90
2022/11/04 05:15:47;;;;;;;0.80;0.80;;;9.80;93.50;;;;;;4992947;28;20215;-89
2022/11/04 05:18:19;;;;;;;0.90;0.90;;;9.70;93.80;;;;;;5003353;28;20230;-90
2022/11/04 05:20:55;;;;;;;1.38;0.80;;;9.70;94.00;;;;;;5027090;28;20317;-88
2022/11/04 05:23:25;;;;;;;1.92;0.90;;;9.60;94.50;;;;;;5027160;28;20281;-90
2022/11/04 05:29:25;;;;;;;0.82;0.80;;;9.50;95.40;;;;;;5034292;28;20249;-90
2022/11/04 05:32:08;;;;;;;1.00;0.90;;;9.50;95.20;;;;;;5034513;28;20210;-90
2022/11/04 05:35:24;;;;;;;1.00;0.70;;;9.50;95.10;;;;;;5034458;28;20294;-90
2022/11/04 05:38:01;;;;;;;1.63;0.88;;;9.50;95.40;;;;;;5031819;28;20250;-90
2022/11/04 05:40:43;;;;;;;0.80;0.80;;;9.40;96.00;;;;;;5022190;28;20291;-90
2022/11/04 05:43:10;;;;;;;1.20;1.10;;;9.40;95.20;;;;;;5027658;28;20283;-91
2022/11/04 05:45:37;;;;;;;0.93;0.90;;;9.40;95.60;;;;;;5031394;28;20212;-90
2022/11/04 05:48:06;;;;;;;1.65;1.13;;;9.40;95.40;;;;;;5033240;28;20286;-90
2022/11/04 05:50:53;;;;;;;2.17;1.00;;;9.50;95.30;;;;;;4992083;28;20250;-89
2022/11/04 05:53:20;;;;;;;1.30;1.00;;;9.50;94.80;;;;;;4991798;28;20781;-90
2022/11/04 05:55:47;;;;;;;2.03;1.10;;;9.40;94.60;;;;;;4988105;28;20283;-90
2022/11/04 05:58:25;;;;;;;0.75;0.75;;;9.40;95.20;;;;;;4989861;28;20672;-90
2022/11/04 06:00:52;;;;;;;1.08;0.98;;;9.40;95.40;;;;;;4997381;28;20295;-90
2022/11/04 06:03:26;;;;;;;1.35;1.13;;;9.40;96.00;;;;;;4991375;28;20280;-90
2022/11/04 06:05:53;;;;;;;1.17;1.02;;;9.40;94.80;;;;;;4979880;28;20303;-90
2022/11/04 06:08:31;;;;;;;0.70;0.70;;;9.40;95.40;;;;;;4991116;28;20649;-90
2022/11/04 06:11:07;;;;;;;0.80;0.80;;;9.40;94.80;;;;;;5026190;28;20286;-90
2022/11/04 06:13:37;;;;;;;1.17;0.90;;;9.50;95.00;;;;;;5026171;28;20284;-90
2022/11/04 06:16:04;;;;;;;1.10;1.00;;;9.50;94.60;;;;;;5025932;28;20298;-90
2022/11/04 06:18:32;;;;;;;1.27;0.90;;;9.50;94.50;;;;;;5026458;28;20309;-90
2022/11/04 06:21:24;;;;;;;2.33;1.02;;;9.40;95.50;;;;;;5030931;28;20222;-90
2022/11/04 06:23:51;;;;;;;3.10;1.10;;;9.30;96.30;;;;;;5018040;28;20207;-90
2022/11/04 06:26:26;;;;;;;2.17;1.20;;;9.10;97.60;;;;;;5021956;28;20209;-90
2022/11/04 06:28:54;;;;;;;2.03;0.95;;;8.90;97.80;;;;;;5024252;28;20237;-90
2022/11/04 06:31:21;;;;;;;3.03;1.13;;;8.80;98.50;;;;;;5019787;28;20206;-90
2022/11/04 06:33:54;;;;;;;1.98;1.10;;;8.80;98.70;;;;;;5016510;28;20203;-90
2022/11/04 06:36:21;;;;;;;3.10;0.98;;;8.70;99.30;;;;;;5022240;28;20538;-91
2022/11/04 06:38:49;;;;;;;3.63;1.00;;;8.60;99.60;;;;;;5034937;28;20225;-90
2022/11/04 06:41:31;;;;;;;2.35;0.90;;;8.60;99.90;;;;;;5015606;28;20202;-90
2022/11/04 06:43:58;;;;;;;3.63;1.20;;;8.50;99.90;;;;;;5025606;28;20722;-90
2022/11/04 06:46:27;;;;;;;1.45;0.90;;;8.50;99.90;;;;;;5022105;28;20256;-90
2022/11/04 06:49:16;;;;;;;1.38;1.10;;;8.60;99.90;;;;;;5020402;28;20556;-90
2022/11/04 06:51:43;;;;;;;1.98;1.00;;;8.60;99.90;;;;;;5025427;28;20224;-90
2022/11/04 06:54:10;;;;;;;1.02;0.90;;;8.70;99.90;;;;;;5026298;28;20651;-90
2022/11/04 06:56:44;;;;;;;3.72;1.17;;;8.70;99.90;;;;;;5024243;28;20206;-90
2022/11/04 06:59:15;;;;;;;4.10;1.30;;;8.70;99.90;;;;;;5026599;28;20230;-90
2022/11/04 07:01:42;;;;;;;6.10;1.33;;;8.60;99.90;;;;;;5024831;28;20202;-90
2022/11/04 07:04:11;;;;;;;1.67;1.10;;;8.60;99.90;;;;;;5029938;28;20301;-90
2022/11/04 07:06:37;;;;;;;2.67;1.25;;;8.70;99.90;;;;;;5031163;28;20294;-90
2022/11/04 07:09:04;;;;;;;1.50;1.17;;;8.60;99.90;;;;;;5026856;28;20218;-90
2022/11/04 07:11:33;;;;;;;2.38;1.42;;;8.60;99.90;;;;;;5030201;28;20286;-90
2022/11/04 07:14:01;;;;;;;2.83;1.23;;;8.60;99.90;;;;;;5020968;28;20206;-90
2022/11/04 07:16:28;;;;;;;5.68;1.48;;;8.60;99.90;;;;;;5027215;28;20278;-90
2022/11/04 07:18:55;;;;;;;1.88;1.45;;;8.50;99.90;;;;;;5028741;28;20317;-90
2022/11/04 07:21:24;;;;;;;1.40;1.30;;;8.60;99.90;;;;;;5023712;28;20254;-90
2022/11/04 07:23:51;;;;;;;1.45;1.35;;;8.60;99.90;;;;;;5021884;28;20629;-89
2022/11/04 07:26:18;;;;;;;3.53;1.83;;;8.60;99.90;;;;;;5016764;28;20627;-90
2022/11/04 07:28:49;;;;;;;2.47;1.48;;;8.60;99.90;;;;;;5018218;28;20209;-90
2022/11/04 07:31:36;;;;;;;3.63;1.80;;;8.70;99.90;;;;;;5029140;28;20643;-92
2022/11/04 07:34:30;;;;;;;3.80;1.40;;;8.70;99.90;;;;;;5024998;28;20286;-91
2022/11/04 07:36:59;;;;;;;3.45;1.42;;;8.60;99.90;;;;;;5022990;28;20290;-91
2022/11/04 07:39:37;;;;;;;1.55;1.27;;;8.50;99.90;;;;;;5033048;28;20329;-91
2022/11/04 07:42:04;;;;;;;2.00;1.40;;;8.50;99.90;;;;;;5028446;28;20211;-92
2022/11/04 07:44:31;;;;;;;2.17;1.30;;;8.50;99.90;;;;;;5030379;28;20297;-91
2022/11/04 07:46:58;;;;;;;2.40;1.15;;;8.60;99.90;;;;;;5027339;28;20245;-92
2022/11/04 07:49:25;;;;;;;2.78;1.52;;;8.50;99.90;;;;;;5033182;28;20289;-91
2022/11/04 07:54:51;;;;;;;3.88;1.77;;;8.60;99.90;;;;;;5031505;28;20286;-91
2022/11/04 07:57:25;;;;;;;3.88;1.50;;;8.80;99.90;;;;;;5036067;28;20705;-91
2022/11/04 07:59:52;;;;;;;2.33;1.50;;;8.80;99.90;;;;;;5032509;28;20237;-92
2022/11/04 08:02:31;;;;;;;2.00;1.30;;;8.80;99.90;;;;;;5039664;28;20206;-91
2022/11/04 08:05:01;;;;;;;2.22;1.30;;;8.70;99.90;;;;;;5030807;28;20301;-91
2022/11/04 08:08:06;;;;;;;2.28;1.48;;;8.70;99.90;;;;;;5031280;28;20293;-92
2022/11/04 08:13:38;;;;;;;2.63;1.40;;;8.60;99.90;;;;;;4962734;28;20208;-92
2022/11/04 08:16:18;;;;;;;1.45;1.35;;;8.50;99.90;;;;;;4967772;28;20644;-92
2022/11/04 08:19:07;;;;;;;2.03;1.30;;;8.40;99.90;;;;;;4924421;29;20237;-91
2022/11/04 08:21:34;;;;;;;4.20;1.50;;;8.50;99.90;;;;;;4914037;29;20245;-91
2022/11/04 08:24:07;;;;;;;2.25;1.38;;;8.60;99.90;;;;;;4915169;29;20683;-91
2022/11/04 08:29:26;;;;;;;2.70;1.60;;;8.60;99.90;;;;;;4909173;29;20759;-90
2022/11/04 08:32:01;;;;;;;4.82;1.50;;;8.60;99.90;;;;;;4911093;29;20632;-90
2022/11/04 08:38:18;;;;;;;1.80;1.40;;;8.60;99.90;;;;;;4900198;29;20295;-89
2022/11/04 08:47:25;;;;;;;2.60;1.75;;;8.70;99.90;;;;;;4972508;28;20611;-91
2022/11/04 08:53:55;;;;;;;1.30;1.20;;;8.60;99.90;;;;;;4975040;28;20216;-93
2022/11/04 09:00:07;;;;;;;3.47;1.50;;;8.80;99.90;;;;;;4930548;29;20282;-93
2022/11/04 09:03:02;;;;;;;2.33;1.30;;;8.80;99.90;;;;;;4909920;29;20218;-93
2022/11/04 09:24:13;;;;;;;2.05;1.40;;;8.70;99.90;;;;;;4836937;29;20269;-92
2022/11/04 09:26:40;;;;;;;2.10;1.55;;;8.70;99.90;;;;;;4850933;29;20299;-93
2022/11/04 09:29:08;;;;;;;4.97;1.60;;;8.70;99.90;;;;;;4860431;29;20260;-92
2022/11/04 09:31:37;;;;;;;4.50;1.27;;;8.60;99.90;;;;;;4858947;29;20621;-93
2022/11/04 09:34:06;;;;;;;1.85;1.30;;;8.60;99.90;;;;;;4862415;29;20292;-93
2022/11/04 10:16:26;;;;;;;1.83;1.63;;;8.70;99.90;;;;;;4850321;29;20651;-90
2022/11/04 10:19:18;;;;;;;4.03;1.70;;;8.80;99.90;;;;;;4870634;29;20228;-90
2022/11/04 10:22:01;;;;;;;2.72;1.48;;;8.90;99.90;;;;;;4893786;29;20226;-89
2022/11/04 10:24:40;;;;;;;1.83;1.30;;;8.90;99.90;;;;;;4892666;29;20219;-89
2022/11/04 10:27:15;;;;;;;1.90;1.70;;;8.90;99.90;;;;;;4897785;29;20248;-89
2022/11/04 10:29:45;;;;;;;2.08;1.67;;;8.90;99.90;;;;;;4891791;29;20214;-89
2022/11/04 10:32:17;;;;;;;1.50;1.38;;;9.00;99.90;;;;;;4894005;29;20347;-88
2022/11/04 10:34:54;;;;;;;1.60;1.48;;;9.00;99.90;;;;;;4923934;29;20678;-88
2022/11/04 10:37:21;;;;;;;1.42;1.20;;;9.20;99.90;;;;;;4928377;29;20202;-89
2022/11/04 10:39:48;;;;;;;1.92;1.60;;;9.10;99.90;;;;;;4996179;28;20587;-89
2022/11/04 10:42:19;;;;;;;1.92;1.60;;;9.00;99.90;;;;;;5024451;28;20554;-88
2022/11/04 10:44:50;;;;;;;2.28;1.73;;;9.20;99.90;;;;;;5027601;28;20572;-88
2022/11/04 10:47:32;;;;;;;1.92;1.50;;;9.30;99.90;;;;;;5026774;28;20286;-88
2022/11/04 10:50:24;;;;;;;1.42;1.27;;;9.40;99.90;;;;;;5024529;28;20641;-87
2022/11/04 10:52:51;;;;;;;2.00;1.50;;;9.40;99.90;;;;;;5016654;28;20289;-88
2022/11/04 10:55:30;;;;;;;1.83;1.50;;;9.40;99.90;;;;;;5018286;28;20199;-87
2022/11/04 10:57:59;;;;;;;1.50;1.40;;;9.40;99.90;;;;;;5018068;28;20206;-88
2022/11/04 11:00:38;;;;;;;2.47;1.40;;;9.30;99.90;;;;;;5024773;28;20353;-91
2022/11/04 11:03:27;;;;;;;3.20;1.55;;;9.20;99.90;;;;;;5021794;28;20291;-91
2022/11/04 11:06:10;;;;;;;2.03;1.60;;;9.20;99.90;;;;;;5019227;28;20227;-91
2022/11/04 11:08:37;;;;;;;2.03;1.50;;;9.30;99.90;;;;;;5022732;28;20297;-91
2022/11/04 11:11:05;;;;;;;2.08;1.50;;;9.20;99.90;;;;;;5028781;28;20640;-92
2022/11/04 11:13:36;;;;;;;3.25;2.00;;;9.10;99.90;;;;;;5027919;28;20225;-91
2022/11/04 11:16:11;;;;;;;1.85;1.45;;;9.10;99.90;;;;;;5021759;28;20302;-91
2022/11/04 11:18:40;;;;;;;2.05;1.70;;;9.10;99.90;;;;;;5023523;28;20229;-92
2022/11/04 11:21:11;;;;;;;1.23;1.02;;;9.10;99.90;;;;;;5030779;28;20234;-90
2022/11/04 11:23:41;;;;;;;1.63;1.52;;;9.20;99.90;;;;;;5028383;28;20212;-92
2022/11/04 11:26:12;;;;;;;2.13;1.40;;;9.10;99.50;;;;;;5030939;28;20227;-92
2022/11/04 11:28:40;;;;;;;2.78;1.58;;;9.10;99.90;;;;;;5023389;28;20282;-93
2022/11/04 11:33:56;;;;;;;1.42;1.33;;;9.00;99.90;;;;;;5028823;28;20260;-90
2022/11/04 11:36:26;;;;;;;1.42;1.33;;;9.00;99.90;;;;;;5026484;28;20207;-92
2022/11/04 11:39:04;;;;;;;1.95;1.67;;;9.10;99.90;;;;;;5021909;28;20214;-91
2022/11/04 11:41:34;;;;;;;1.70;1.52;;;9.10;99.90;;;;;;5024065;28;20589;-92
2022/11/04 11:44:07;;;;;;;1.55;1.30;;;9.00;99.90;;;;;;5028857;28;20307;-91
2022/11/04 11:46:40;;;;;;;1.55;1.35;;;9.00;99.90;;;;;;5029772;28;20260;-90
2022/11/04 11:49:27;;;;;;;2.03;1.73;;;9.10;99.90;;;;;;5029088;28;20213;-91
2022/11/04 11:51:55;;;;;;;1.98;1.55;;;9.10;99.90;;;;;;5026856;28;20226;-92
2022/11/04 11:54:32;;;;;;;1.95;1.70;;;9.20;99.90;;;;;;5026775;28;20208;-92
2022/11/04 11:57:02;;;;;;;2.67;1.75;;;9.10;99.90;;;;;;5025897;28;20202;-93
2022/11/04 11:59:37;;;;;;;2.00;1.70;;;9.10;99.90;;;;;;5031309;28;20306;-91
2022/11/04 12:02:26;;;;;;;1.80;1.60;;;9.10;99.90;;;;;;5030588;28;20202;-91
2022/11/04 12:04:55;;;;;;;5.07;1.20;;;9.30;99.90;;;;;;5026523;28;20262;-92
2022/11/04 12:07:29;;;;;;;1.80;1.25;;;9.20;99.60;;;;;;5033804;28;20234;-90
2022/11/04 12:10:17;;;;;;;3.28;1.30;;;9.10;99.90;;;;;;5035018;28;20265;-91
2022/11/04 12:13:03;;;;;;;1.98;1.42;;;9.20;99.90;;;;;;5027555;28;20549;-91
2022/11/04 12:15:42;;;;;;;3.55;1.50;;;9.20;98.80;;;;;;5023928;28;20206;-92
2022/11/04 12:18:50;;;;;;;1.80;1.42;;;9.10;98.90;;;;;;5025937;28;20202;-91
2022/11/04 12:21:41;;;;;;;2.60;1.48;;;9.00;98.10;;;;;;4960738;28;20232;-90
2022/11/04 12:24:20;;;;;;;1.50;1.40;;;8.80;98.00;;;;;;4963124;28;20205;-90
2022/11/04 12:26:53;;;;;;;1.27;1.17;;;8.70;98.50;;;;;;4959688;28;20661;-89
2022/11/04 12:29:39;;;;;;;2.40;1.00;;;8.70;99.20;;;;;;4966256;28;20201;-90
2022/11/04 12:32:14;;;;;;;3.25;1.50;;;8.80;99.00;;;;;;4959439;28;20212;-89
2022/11/04 12:34:56;;;;;;;2.75;1.92;;;8.90;98.50;;;;;;4962584;28;20684;-89
2022/11/04 12:37:33;;;;;;;1.45;1.30;;;8.90;98.80;;;;;;4959729;28;20304;-88
2022/11/04 12:40:18;;;;;;;1.23;1.10;;;9.00;98.30;;;;;;4996553;28;20216;-89
2022/11/04 12:42:59;;;;;;;1.63;1.30;;;9.20;98.60;;;;;;5018491;28;20210;-90
2022/11/04 12:45:58;;;;;;;1.75;1.25;;;9.10;98.10;;;;;;5003810;28;20309;-90
2022/11/04 12:48:49;;;;;;;1.70;1.25;;;9.10;98.20;;;;;;4999153;28;20262;-90
2022/11/04 12:51:26;;;;;;;3.97;1.35;;;9.10;98.40;;;;;;5000685;28;20466;-90
2022/11/04 12:54:09;;;;;;;1.30;1.10;;;9.10;98.60;;;;;;4998486;28;20597;-91
2022/11/04 12:56:39;;;;;;;1.90;1.33;;;9.00;99.00;;;;;;5006335;28;20681;-90
2022/11/04 12:59:33;;;;;;;1.63;1.30;;;8.90;99.40;;;;;;5002180;28;20218;-89
2022/11/04 13:02:05;;;;;;;3.38;1.42;;;8.70;99.30;;;;;;4994213;28;20228;-90
2022/11/04 13:04:39;;;;;;;1.30;1.20;;;8.60;99.90;;;;;;5013342;28;20639;-89
2022/11/04 13:07:14;;;;;;;1.45;1.10;;;8.70;99.90;;;;;;5024662;28;20617;-90
2022/11/04 13:10:06;;;;;;;1.80;1.17;;;8.60;98.60;;;;;;5016402;28;20211;-90
2022/11/04 13:12:39;;;;;;;0.93;0.88;;;8.50;98.60;;;;;;5020524;28;20279;-90
2022/11/04 13:15:15;;;;;;;1.30;1.20;;;8.50;98.70;;;;;;5013992;28;20742;-90
2022/11/04 13:17:44;;;;;;;2.05;1.17;;;8.40;99.30;;;;;;5014865;28;20210;-90
2022/11/04 13:20:31;;;;;;;2.25;1.63;;;8.40;99.80;;;;;;5013123;28;20291;-91
2022/11/04 13:25:48;;;;;;;6.18;4.53;;;8.30;99.30;;;;;;5021496;28;20242;-92
2022/11/04 13:28:18;;;;;;;1.80;1.30;;;8.20;99.90;;;;;;5024447;28;20252;-92
2022/11/04 13:30:52;;;;;;;33.13;22.08;;;8.30;99.90;;;;;;5035294;28;20213;-95
2022/11/04 13:33:34;;;;;;;2.97;1.40;;;8.60;99.90;;;;;;5030774;28;20229;-94
2022/11/04 13:36:29;;;;;;;2.30;1.73;;;8.30;99.90;;;;;;5027262;28;20242;-94
2022/11/04 13:39:16;;;;;;;2.05;1.27;;;8.20;99.90;;;;;;5037812;28;20294;-92
2022/11/04 13:42:23;;;;;;;2.30;1.40;;;8.00;99.90;;;;;;5010632;28;20230;-91
2022/11/04 13:44:55;;;;;;;27.10;7.47;;;8.10;99.90;;;;;;5024273;28;20301;-91
2022/11/04 13:47:38;;;;;;;10.68;4.07;;;8.10;99.90;;;;;;5021124;28;20261;-89
2022/11/04 13:50:28;;;;;;;4.03;1.58;;;8.20;99.90;;;;;;5021825;28;20199;-93
2022/11/04 13:52:55;;;;;;;5.13;2.22;;;8.10;99.90;;;;;;5021981;28;20257;-91
2022/11/04 13:55:24;;;;;;;1.75;1.38;;;8.10;99.90;;;;;;5025820;28;20292;-92
2022/11/04 13:57:55;;;;;;;3.50;2.08;;;8.10;99.90;;;;;;5018733;28;20260;-89
2022/11/04 14:00:25;;;;;;;2.70;1.63;;;8.00;99.90;;;;;;5017314;28;20746;-89
2022/11/04 14:02:53;;;;;;;4.78;2.10;;;8.00;99.90;;;;;;5016637;28;20230;-89
2022/11/04 14:05:57;;;;;;;3.92;1.58;;;8.00;99.90;;;;;;5021948;28;20203;-90
2022/11/04 14:08:24;;;;;;;3.53;1.30;;;8.10;99.90;;;;;;5026130;28;20589;-88
2022/11/04 14:11:11;;;;;;;3.33;1.85;;;8.10;99.90;;;;;;5028246;28;20753;-90
2022/11/04 14:13:46;;;;;;;2.90;1.33;;;8.10;99.90;;;;;;5030128;28;20285;-89
2022/11/04 14:19:59;;;;;;;3.53;1.55;;;8.20;99.90;;;;;;5030443;28;20217;-88
2022/11/04 14:22:35;;;;;;;2.55;1.70;;;8.10;99.90;;;;;;5016956;28;20226;-88
2022/11/04 14:25:18;;;;;;;2.47;2.00;;;8.10;99.90;;;;;;5023091;28;20221;-89
2022/11/04 14:27:48;;;;;;;5.90;3.33;;;8.10;99.90;;;;;;5032783;28;20206;-89
2022/11/04 14:30:30;;;;;;;8.73;4.30;;;8.10;99.90;;;;;;5032711;28;20238;-88
2022/11/04 14:33:01;;;;;;;3.72;2.97;;;8.20;99.90;;;;;;5026327;28;20238;-88
2022/11/04 14:35:30;;;;;;;3.45;2.60;;;8.30;99.90;;;;;;5014362;28;20238;-88
2022/11/04 14:37:59;;;;;;;3.67;2.70;;;8.40;99.90;;;;;;5019872;28;20206;-88
2022/11/04 14:40:28;;;;;;;11.38;5.40;;;8.40;99.90;;;;;;5029654;28;20328;-89
2022/11/04 14:42:58;;;;;;;4.13;2.60;;;8.40;99.90;;;;;;5022745;28;20296;-88
2022/11/04 14:45:28;;;;;;;4.47;2.70;;;8.30;99.90;;;;;;5027875;28;20218;-89
2022/11/04 14:48:01;;;;;;;5.57;2.75;;;8.30;99.90;;;;;;5027688;28;20630;-88
2022/11/04 14:50:28;;;;;;;4.07;2.30;;;8.20;99.90;;;;;;5026407;28;20689;-88
2022/11/04 14:52:58;;;;;;;2.85;1.77;;;8.20;99.90;;;;;;5022413;28;20215;-88
2022/11/04 14:55:28;;;;;;;2.65;2.15;;;8.30;99.90;;;;;;5024899;28;20226;-88
2022/11/04 14:57:58;;;;;;;1.95;1.65;;;8.30;99.90;;;;;;5023597;28;20242;-88
2022/11/04 15:00:34;;;;;;;1.52;1.35;;;8.20;99.20;;;;;;5029768;28;20213;-88
2022/11/04 15:03:13;;;;;;;3.22;1.88;;;8.10;99.70;;;;;;5021138;28;20261;-88
2022/11/04 15:05:48;;;;;;;2.08;1.80;;;8.10;99.90;;;;;;5030592;28;20206;-88
2022/11/04 15:08:30;;;;;;;4.60;2.03;;;8.00;99.90;;;;;;5014965;28;20744;-88
2022/11/04 15:11:03;;;;;;;4.18;1.50;;;8.00;99.90;;;;;;5023421;28;20731;-88
2022/11/04 15:13:39;;;;;;;3.22;1.70;;;8.00;99.90;;;;;;5019343;28;20221;-89
2022/11/04 15:16:13;;;;;;;2.15;1.55;;;7.90;99.90;;;;;;5026973;28;20206;-88
2022/11/04 15:18:41;;;;;;;1.83;1.70;;;7.90;99.90;;;;;;5024602;28;20229;-88
2022/11/04 15:21:10;;;;;;;4.53;1.40;;;7.90;99.90;;;;;;5022601;28;20337;-88
2022/11/04 15:23:40;;;;;;;2.05;1.40;;;7.90;99.90;;;;;;5020280;28;20216;-88
2022/11/04 15:26:07;;;;;;;2.83;1.40;;;7.80;99.90;;;;;;5029842;28;20261;-88
2022/11/04 15:28:45;;;;;;;1.85;1.10;;;7.80;99.90;;;;;;5031871;28;20198;-88
2022/11/04 15:31:19;;;;;;;2.42;1.33;;;7.70;99.90;;;;;;5026434;28;20210;-89
2022/11/04 15:33:49;;;;;;;4.85;1.40;;;7.70;99.90;;;;;;5029098;28;20589;-88
2022/11/04 15:36:19;;;;;;;1.80;1.60;;;7.70;99.90;;;;;;5028640;28;20234;-89
2022/11/04 15:38:50;;;;;;;2.45;1.60;;;7.60;99.90;;;;;;5024044;28;20261;-88
2022/11/04 15:44:13;;;;;;;2.05;1.60;;;7.70;99.90;;;;;;5028389;28;20349;-88
2022/11/04 15:46:40;;;;;;;3.17;1.75;;;7.70;99.90;;;;;;5027861;28;20195;-88
2022/11/04 15:49:19;;;;;;;1.75;1.65;;;7.70;99.90;;;;;;5021320;28;20233;-88
2022/11/04 15:51:46;;;;;;;2.83;1.63;;;7.60;99.90;;;;;;5021146;28;20209;-88
2022/11/04 15:54:22;;;;;;;2.80;2.10;;;7.60;99.90;;;;;;5020901;28;20238;-88
2022/11/04 15:56:51;;;;;;;3.83;2.33;;;7.50;99.90;;;;;;5031807;28;20310;-89
2022/11/04 15:59:23;;;;;;;3.85;2.15;;;7.50;99.90;;;;;;5033903;28;20554;-88
2022/11/04 16:01:51;;;;;;;2.75;2.00;;;7.60;99.90;;;;;;5029222;28;20597;-88
2022/11/04 16:04:37;;;;;;;3.00;1.77;;;7.60;99.90;;;;;;5032859;28;20203;-88
2022/11/04 16:07:43;;;;;;;2.72;1.90;;;7.60;99.90;;;;;;5034249;28;20306;-88
2022/11/04 16:10:43;;;;;;;2.45;1.77;;;7.60;99.90;;;;;;5022218;28;20285;-89
2022/11/04 16:13:28;;;;;;;2.47;1.75;;;7.60;99.90;;;;;;5022445;28;20353;-88
2022/11/04 16:16:32;;;;;;;2.15;1.67;;;7.40;99.90;;;;;;5029523;28;20203;-89
2022/11/04 16:19:18;;;;;;;2.33;1.80;;;7.30;99.90;;;;;;5025066;28;20282;-89
2022/11/04 16:21:46;;;;;;;2.55;1.60;;;7.20;99.90;;;;;;5029272;28;20320;-87
2022/11/04 16:24:33;;;;;;;2.13;1.80;;;7.20;99.90;;;;;;5021275;28;20571;-88
2022/11/04 16:27:01;;;;;;;3.63;1.90;;;7.10;99.90;;;;;;5020147;28;20235;-88
2022/11/04 16:29:33;;;;;;;2.40;1.77;;;7.10;99.90;;;;;;5026247;28;20285;-87
2022/11/04 16:32:26;;;;;;;2.03;1.75;;;7.00;99.90;;;;;;5025091;28;20202;-87
2022/11/04 16:34:56;;;;;;;4.55;2.50;;;6.90;99.90;;;;;;5019064;28;20204;-87
2022/11/04 16:37:26;;;;;;;2.33;2.13;;;6.80;99.90;;;;;;5020580;28;20203;-87
2022/11/04 16:39:53;;;;;;;3.40;2.15;;;6.80;99.90;;;;;;5020827;28;20337;-87
2022/11/04 16:42:21;;;;;;;5.32;2.85;;;6.70;99.90;;;;;;5018770;28;20245;-87
2022/11/04 16:45:01;;;;;;;2.75;2.22;;;6.60;99.90;;;;;;5020380;28;20225;-87
2022/11/04 16:47:30;;;;;;;2.90;2.60;;;6.60;99.90;;;;;;5016900;28;20258;-87
2022/11/04 16:50:00;;;;;;;3.33;2.33;;;6.50;99.90;;;;;;5022433;28;20206;-87
2022/11/04 16:52:27;;;;;;;3.30;2.85;;;6.40;99.90;;;;;;5024734;28;20195;-87
2022/11/04 16:54:55;;;;;;;2.90;2.60;;;6.40;99.90;;;;;;5022092;28;20206;-87
2022/11/04 16:57:32;;;;;;;4.50;2.25;;;6.30;99.90;;;;;;5023602;28;20608;-88
2022/11/04 16:59:59;;;;;;;2.10;1.90;;;6.30;99.90;;;;;;5023400;28;20225;-86
2022/11/04 17:03:13;;;;;;;3.63;2.33;;;6.20;99.90;;;;;;5032239;28;20236;-87
2022/11/04 17:05:57;;;;;;;3.30;2.10;;;6.20;99.90;;;;;;5026130;28;20290;-87